Rogers Hill, Texas
Current Conditions -  °F | °C
As of 2:53 PM on Sunday 23 Nov 2014 (Local Time) from KCNW Reporting Station
Clear Clear  
Wind Chill: 81°   Ceiling: Unl
Heat Index: 81°   Visibility: 10mi
Dew Point: 39°   Wind: 17mph
Humidity: 23%   Direction: 230°SW
Pressure: 29.46"   Gusts: 25mph
Location:  31.7636°N, 97.1357°W
Report Text: KCNW 232053Z 23015G22KT 10SM SKC 27/04 A2946
Loading
Personal Weather Stations






























Interactive Weather Map New forecast layout! Learn more

10-Day Weather Forecast

Advertisements
Track Severe Weather on mobile